KOBE/OBE METAR and TAF weather

Enter ICAO airport designator
Station Type Date Time Source
KOBE METAR 2022/06/30 00:55 UTC NOAA

KOBE 300055Z AUTO 00000KT 10SM CLR 25/25 A3013 RMK AO2


Station Type Date Time Source
KOBE Decoded METAR 2022/06/30 00:55 UTC NOAA

Okeechobee County Airport, FL, United States (KOBE) 27-15-60N 080-51-02W
Jun 29, 2022 - 08:55 PM EDT / 2022.06.30 0055 UTC
Wind: Calm:0
Visibility: 10 mile(s):0
Sky conditions: clear
Temperature: 77 F (25 C)
Dew Point: 77 F (25 C)
Relative Humidity: 100%
Pressure (altimeter): 30.13 in. Hg (1020 hPa)
ob: KOBE 300055Z AUTO 00000KT 10SM CLR 25/25 A3013 RMK AO2
cycle: 1

Station Type Date Time Source
KOBE TAF UTC NOAA

Error!

Example: see airport list